KIBM

Kimball Municipal / Robert E Arraj Field Airport

Kimball, Nebraska, USA
METAR KIBM 231615Z AUTO 00000KT 10SM CLR M11/M14 A3008 RMK AO2 T11061138
Observed Flight Rules
Feb-23 @ 16:15 UTC (17 minutes ago) Visual Flight Rules
Wind Visibility Clouds
Calm 10 miles
  • Clear skies
Temperatures Readings
Current -11°C / 12°F
Dewpoint -14°C / 7°F
Humidity 79%
Altimeter 30.08" Hg
Pressure 1019 hPa
Elevation 1501
METAR KIBM 231615Z AUTO 00000KT 10SM CLR M11/M14 A3008 RMK AO2 T11061138
Observed Flight Rules
Feb-23 @ 16:15 UTC
(17 minutes ago)
VFR
Wind Visibility
Calm 10 miles
Clouds
  • Clear skies
Temperature Dewpoint
-11°C / 12°F -14°C / 7°F
Humidity Altimeter Pressure
79% 30.08" Hg 1019 hPa